Taftsville, VT (05073)

3:40 AM EDT on July 26, 2016 (GMT -0400)
Quechee Lakes Sec 1 | | Change Station

Elev 1180 ft 43.65 °N, 72.46 °W | Updated 2 seconds ago

Clear
Clear
68.2 °F
Feels Like 68.2 °F
N
0.0
Wind Variable Wind from West
Gusts 0.0 mph

Today
High -- | Low -- °F
--% Chance of Precip.
Yesterday
High -- | Low -- °F
Precip. -- in
Pressure 29.74 in
Visibility 3.0 miles
Clouds Clear
Dew Point 62 °F
Humidity 81%
Rainfall 0.00 in
Snow Depth Not available.
5:33 AM 8:18 PM
Waning Gibbous, 57% visible
METAR KLEB 260653Z AUTO 00000KT 3SM BR CLR 19/17 A2977 RMK AO2 SLP070 T01890172
Pressure 29.74 in
Visibility 3.0 miles
Clouds Clear
Dew Point 62 °F
Humidity 81%
Rainfall 0.00 in
Snow Depth Not available.
5:33 AM 8:18 PM
Waning Gibbous, 57% visible
METAR KLEB 260653Z AUTO 00000KT 3SM BR CLR 19/17 A2977 RMK AO2 SLP070 T01890172

10-Day Weather Forecast

Almanac

Astronomy

Jul. 26, 2016 Rise Set
Actual Time
Civil Twilight
Nautical Twilight
Astronomical Twilight
Moon
Length of Visible Light
Length of Day
Tomorrow will be .
, % of the Moon is Illuminated

Today's Extremes

State Highs State Lows

Community

WunderPhotos

Upload Photos

1,927,552 photos uploaded!

WunderBlog® & News

Nearby

Air Quality

  Air Quality AQ Index Pollutant
Not available.

Snow Depth

Station Depth Elevation

Earthquake Activity

City Distance Mag. Time & Date
Minimum magnitude displayed is 2.5.

Coastal Water Temperatures

Place Temperature

Stations

Nearby Weather Stations

Station Location Temp. Windchill Dew Point Humidity Wind Precip. Elev Updated Type
                   

Watches & Warnings

There are currently no watches in effect.